N447BF MDJB-MDJB
Flight info
| Callsign | N447BF |
|---|---|
| Flight time | 0h 39m |
| Altitude | 5000 |
| Route | VFR |
| Aircraft | B407/L-SDGRY/S |
Departure
| Time | 2026-04-24 20:41 |
|---|---|
| Airport | La Isabela International Airport (MDJB) |
Arrival
| Time | 2026-04-24 21:20 |
|---|---|
| Airport | La Isabela International Airport (MDJB) |
| Time | Latitude | Longitude | Altitude | Speed | Heading |
|---|---|---|---|---|---|
| 2026-04-24 20:39 | 18.43352 | -69.94703 | 60 ft | 0 kts | 90° |
| 2026-04-24 20:39 | 18.43354 | -69.94698 | 63 ft | 2 kts | 82° |
| 2026-04-24 20:39 | 18.43350 | -69.94680 | 152 ft | 6 kts | 74° |
| 2026-04-24 20:40 | 18.43377 | -69.94618 | 222 ft | 36 kts | 76° |
| 2026-04-24 20:40 | 18.43608 | -69.94275 | 304 ft | 69 kts | 34° |
| 2026-04-24 20:40 | 18.44131 | -69.94346 | 363 ft | 93 kts | 358° |
| 2026-04-24 20:40 | 18.44891 | -69.94478 | 617 ft | 126 kts | 345° |
| 2026-04-24 20:41 | 18.45751 | -69.94702 | 906 ft | 138 kts | 345° |
| 2026-04-24 20:41 | 18.46718 | -69.94965 | 1151 ft | 144 kts | 342° |
| 2026-04-24 20:41 | 18.47683 | -69.95273 | 1356 ft | 147 kts | 342° |
| 2026-04-24 20:41 | 18.48659 | -69.95584 | 1594 ft | 147 kts | 341° |
| 2026-04-24 20:42 | 18.49625 | -69.95891 | 1814 ft | 131 kts | 338° |
| 2026-04-24 20:42 | 18.50517 | -69.96225 | 1930 ft | 141 kts | 338° |
| 2026-04-24 20:42 | 18.51469 | -69.96504 | 1936 ft | 143 kts | 341° |
| 2026-04-24 20:42 | 18.52432 | -69.96765 | 1931 ft | 145 kts | 342° |
| 2026-04-24 20:43 | 18.53420 | -69.97020 | 1925 ft | 147 kts | 343° |
| 2026-04-24 20:43 | 18.54420 | -69.97267 | 1919 ft | 148 kts | 344° |
| 2026-04-24 20:43 | 18.55430 | -69.97504 | 1913 ft | 149 kts | 345° |
| 2026-04-24 20:43 | 18.56451 | -69.97732 | 1911 ft | 151 kts | 346° |
| 2026-04-24 20:44 | 18.57486 | -69.97953 | 1909 ft | 152 kts | 347° |
| 2026-04-24 20:44 | 18.58524 | -69.98165 | 1908 ft | 154 kts | 347° |
| 2026-04-24 20:44 | 18.59584 | -69.98372 | 1907 ft | 155 kts | 348° |
| 2026-04-24 20:44 | 18.60656 | -69.98571 | 1906 ft | 156 kts | 348° |
| 2026-04-24 20:45 | 18.61716 | -69.98759 | 1905 ft | 157 kts | 349° |
| 2026-04-24 20:45 | 18.62808 | -69.98944 | 1904 ft | 158 kts | 350° |
| 2026-04-24 20:45 | 18.63904 | -69.99120 | 1903 ft | 159 kts | 350° |
| 2026-04-24 20:45 | 18.64994 | -69.99287 | 1895 ft | 160 kts | 351° |
| 2026-04-24 20:46 | 18.66094 | -69.99443 | 1889 ft | 160 kts | 352° |
| 2026-04-24 20:46 | 18.67200 | -69.99589 | 1878 ft | 160 kts | 353° |
| 2026-04-24 20:46 | 18.68306 | -69.99723 | 1876 ft | 160 kts | 353° |
| 2026-04-24 20:46 | 18.69416 | -69.99848 | 1875 ft | 161 kts | 354° |
| 2026-04-24 20:47 | 18.70535 | -69.99967 | 1875 ft | 161 kts | 354° |
| 2026-04-24 20:47 | 18.71641 | -70.00124 | 1865 ft | 164 kts | 344° |
| 2026-04-24 20:47 | 18.72592 | -70.00781 | 1865 ft | 162 kts | 313° |
| 2026-04-24 20:47 | 18.73396 | -70.01592 | 1872 ft | 161 kts | 315° |
| 2026-04-24 20:48 | 18.74319 | -70.02258 | 1866 ft | 161 kts | 332° |
| 2026-04-24 20:48 | 18.75351 | -70.02729 | 1858 ft | 162 kts | 336° |
| 2026-04-24 20:48 | 18.76385 | -70.03197 | 1855 ft | 163 kts | 335° |
| 2026-04-24 20:48 | 18.77068 | -70.03536 | 1854 ft | 162 kts | 333° |
| 2026-04-24 20:49 | 18.78066 | -70.04046 | 1801 ft | 157 kts | 333° |
| 2026-04-24 20:49 | 18.79052 | -70.04537 | 1789 ft | 156 kts | 334° |
| 2026-04-24 20:49 | 18.80036 | -70.05015 | 1786 ft | 156 kts | 335° |
| 2026-04-24 20:49 | 18.81024 | -70.05492 | 1785 ft | 156 kts | 335° |
| 2026-04-24 20:50 | 18.82012 | -70.05967 | 1785 ft | 156 kts | 335° |
| 2026-04-24 20:50 | 18.83000 | -70.06442 | 1785 ft | 156 kts | 335° |
| 2026-04-24 20:50 | 18.83987 | -70.06915 | 1785 ft | 156 kts | 335° |
| 2026-04-24 20:50 | 18.84974 | -70.07389 | 1785 ft | 156 kts | 335° |
| 2026-04-24 20:51 | 18.85956 | -70.07860 | 1812 ft | 153 kts | 335° |
| 2026-04-24 20:51 | 18.86901 | -70.08300 | 1912 ft | 143 kts | 338° |
| 2026-04-24 20:51 | 18.87792 | -70.08692 | 1981 ft | 140 kts | 339° |
| 2026-04-24 20:51 | 18.88683 | -70.09113 | 1988 ft | 142 kts | 335° |
| 2026-04-24 20:52 | 18.89579 | -70.09593 | 1966 ft | 147 kts | 332° |
| 2026-04-24 20:52 | 18.90494 | -70.10128 | 1949 ft | 152 kts | 329° |
| 2026-04-24 20:52 | 18.91412 | -70.10690 | 1948 ft | 152 kts | 329° |
| 2026-04-24 20:52 | 18.92325 | -70.11254 | 1953 ft | 152 kts | 329° |
| 2026-04-24 20:53 | 18.93230 | -70.11812 | 1957 ft | 152 kts | 329° |
| 2026-04-24 20:53 | 18.94148 | -70.12378 | 1959 ft | 152 kts | 329° |
| 2026-04-24 20:53 | 18.95065 | -70.12944 | 1959 ft | 152 kts | 329° |
| 2026-04-24 20:53 | 18.95980 | -70.13507 | 1958 ft | 153 kts | 329° |
| 2026-04-24 20:54 | 18.96903 | -70.14076 | 1957 ft | 153 kts | 329° |
| 2026-04-24 20:54 | 18.97819 | -70.14641 | 1956 ft | 153 kts | 329° |
| 2026-04-24 20:54 | 18.98727 | -70.15201 | 1955 ft | 153 kts | 329° |
| 2026-04-24 20:54 | 18.99640 | -70.15773 | 1948 ft | 153 kts | 329° |
| 2026-04-24 20:55 | 19.00552 | -70.16348 | 1943 ft | 153 kts | 329° |
| 2026-04-24 20:55 | 19.01469 | -70.16925 | 1942 ft | 153 kts | 329° |
| 2026-04-24 20:55 | 19.02380 | -70.17497 | 1942 ft | 153 kts | 329° |
| 2026-04-24 20:55 | 19.03297 | -70.18071 | 1943 ft | 153 kts | 329° |
| 2026-04-24 20:56 | 19.04217 | -70.18645 | 1944 ft | 153 kts | 329° |
| 2026-04-24 20:56 | 19.05135 | -70.19216 | 1944 ft | 153 kts | 329° |
| 2026-04-24 20:56 | 19.06042 | -70.19781 | 1945 ft | 153 kts | 329° |
| 2026-04-24 20:56 | 19.06964 | -70.20352 | 1946 ft | 153 kts | 329° |
| 2026-04-24 20:57 | 19.07882 | -70.20921 | 1946 ft | 153 kts | 329° |
| 2026-04-24 20:57 | 19.08805 | -70.21492 | 1946 ft | 153 kts | 329° |
| 2026-04-24 20:57 | 19.09725 | -70.22061 | 1946 ft | 153 kts | 329° |
| 2026-04-24 20:57 | 19.10605 | -70.22654 | 1833 ft | 139 kts | 327° |
| 2026-04-24 20:58 | 19.11471 | -70.22802 | 1725 ft | 126 kts | 15° |
| 2026-04-24 20:58 | 19.12280 | -70.22448 | 1525 ft | 124 kts | 25° |
| 2026-04-24 20:58 | 19.13065 | -70.22008 | 1234 ft | 133 kts | 33° |
| 2026-04-24 20:58 | 19.13839 | -70.21475 | 943 ft | 131 kts | 42° |
| 2026-04-24 20:59 | 19.14040 | -70.20761 | 914 ft | 92 kts | 126° |
| 2026-04-24 20:59 | 19.13507 | -70.20802 | 819 ft | 97 kts | 223° |
| 2026-04-24 20:59 | 19.13087 | -70.21371 | 506 ft | 84 kts | 232° |
| 2026-04-24 20:59 | 19.13020 | -70.21687 | 393 ft | 15 kts | 289° |
| 2026-04-24 21:00 | 19.13047 | -70.21769 | 266 ft | 12 kts | 299° |
| 2026-04-24 21:00 | 19.13098 | -70.21861 | 230 ft | 14 kts | 295° |
| 2026-04-24 21:00 | 19.13125 | -70.21940 | 219 ft | 14 kts | 306° |
| 2026-04-24 21:00 | 19.13142 | -70.21974 | 212 ft | 2 kts | 73° |
| 2026-04-24 21:01 | 19.13144 | -70.21979 | 210 ft | 2 kts | 117° |
| 2026-04-24 21:01 | 19.13142 | -70.21976 | 202 ft | 0 kts | 123° |
| 2026-04-24 21:03 | 19.13126 | -70.21958 | 214 ft | 17 kts | 144° |
| 2026-04-24 21:03 | 19.13020 | -70.21667 | 240 ft | 68 kts | 109° |
| 2026-04-24 21:03 | 19.12785 | -70.21056 | 449 ft | 104 kts | 118° |
| 2026-04-24 21:04 | 19.12221 | -70.20705 | 710 ft | 98 kts | 163° |
| 2026-04-24 21:04 | 19.11496 | -70.20462 | 951 ft | 117 kts | 151° |
| 2026-04-24 21:04 | 19.10761 | -70.20035 | 1137 ft | 126 kts | 149° |
| 2026-04-24 21:04 | 19.09985 | -70.19601 | 1412 ft | 126 kts | 150° |
| 2026-04-24 21:05 | 19.09180 | -70.19167 | 1678 ft | 131 kts | 149° |
| 2026-04-24 21:05 | 19.08856 | -70.18974 | 1723 ft | 127 kts | 145° |
| 2026-04-24 21:05 | 19.08394 | -70.18682 | 1861 ft | 135 kts | 150° |
| 2026-04-24 21:05 | 19.07543 | -70.18258 | 2128 ft | 136 kts | 155° |
| 2026-04-24 21:06 | 19.07000 | -70.17994 | 2196 ft | 142 kts | 156° |
| 2026-04-24 21:06 | 19.06297 | -70.17621 | 2096 ft | 151 kts | 150° |
| 2026-04-24 21:06 | 19.05367 | -70.17099 | 1856 ft | 148 kts | 153° |
| 2026-04-24 21:07 | 19.04436 | -70.16657 | 1806 ft | 146 kts | 156° |
| 2026-04-24 21:07 | 19.03510 | -70.16263 | 1762 ft | 143 kts | 158° |
| 2026-04-24 21:07 | 19.02598 | -70.15903 | 1727 ft | 138 kts | 160° |
| 2026-04-24 21:07 | 19.01705 | -70.15582 | 1719 ft | 132 kts | 162° |
| 2026-04-24 21:08 | 19.00843 | -70.15298 | 1748 ft | 129 kts | 164° |
| 2026-04-24 21:08 | 18.99984 | -70.15026 | 1759 ft | 132 kts | 163° |
| 2026-04-24 21:08 | 18.99079 | -70.14718 | 1756 ft | 139 kts | 161° |
| 2026-04-24 21:08 | 18.98152 | -70.14371 | 1756 ft | 141 kts | 159° |
| 2026-04-24 21:09 | 18.97240 | -70.14003 | 1756 ft | 140 kts | 159° |
| 2026-04-24 21:09 | 18.96341 | -70.13635 | 1756 ft | 140 kts | 159° |
| 2026-04-24 21:09 | 18.95429 | -70.13261 | 1756 ft | 140 kts | 159° |
| 2026-04-24 21:09 | 18.94516 | -70.12886 | 1756 ft | 141 kts | 159° |
| 2026-04-24 21:10 | 18.93603 | -70.12513 | 1756 ft | 141 kts | 159° |
| 2026-04-24 21:10 | 18.92688 | -70.12140 | 1756 ft | 141 kts | 159° |
| 2026-04-24 21:10 | 18.91771 | -70.11768 | 1756 ft | 141 kts | 159° |
| 2026-04-24 21:10 | 18.90855 | -70.11397 | 1756 ft | 141 kts | 159° |
| 2026-04-24 21:11 | 18.89936 | -70.11026 | 1756 ft | 141 kts | 159° |
| 2026-04-24 21:11 | 18.89019 | -70.10658 | 1755 ft | 141 kts | 159° |
| 2026-04-24 21:11 | 18.88097 | -70.10289 | 1755 ft | 141 kts | 159° |
| 2026-04-24 21:11 | 18.87177 | -70.09921 | 1755 ft | 142 kts | 159° |
| 2026-04-24 21:12 | 18.86255 | -70.09555 | 1753 ft | 142 kts | 159° |
| 2026-04-24 21:12 | 18.85644 | -70.09313 | 1755 ft | 142 kts | 160° |
| 2026-04-24 21:12 | 18.84408 | -70.08827 | 1755 ft | 142 kts | 160° |
| 2026-04-24 21:12 | 18.83481 | -70.08463 | 1755 ft | 142 kts | 160° |
| 2026-04-24 21:13 | 18.82554 | -70.08101 | 1755 ft | 142 kts | 160° |
| 2026-04-24 21:13 | 18.81626 | -70.07739 | 1755 ft | 142 kts | 160° |
| 2026-04-24 21:13 | 18.80697 | -70.07375 | 1756 ft | 142 kts | 160° |
| 2026-04-24 21:13 | 18.79784 | -70.07017 | 1756 ft | 142 kts | 160° |
| 2026-04-24 21:14 | 18.78857 | -70.06654 | 1757 ft | 142 kts | 160° |
| 2026-04-24 21:14 | 18.77936 | -70.06294 | 1775 ft | 141 kts | 160° |
| 2026-04-24 21:14 | 18.77024 | -70.05945 | 1869 ft | 136 kts | 162° |
| 2026-04-24 21:14 | 18.76152 | -70.05638 | 1955 ft | 130 kts | 164° |
| 2026-04-24 21:15 | 18.75286 | -70.05349 | 1987 ft | 131 kts | 164° |
| 2026-04-24 21:15 | 18.74406 | -70.05049 | 1980 ft | 135 kts | 162° |
| 2026-04-24 21:15 | 18.73499 | -70.04713 | 1969 ft | 141 kts | 160° |
| 2026-04-24 21:15 | 18.72581 | -70.04342 | 1962 ft | 141 kts | 159° |
| 2026-04-24 21:16 | 18.71683 | -70.03969 | 1960 ft | 141 kts | 159° |
| 2026-04-24 21:16 | 18.70764 | -70.03587 | 1961 ft | 141 kts | 159° |
| 2026-04-24 21:16 | 18.69848 | -70.03207 | 1962 ft | 142 kts | 159° |
| 2026-04-24 21:16 | 18.68927 | -70.02827 | 1963 ft | 142 kts | 159° |
| 2026-04-24 21:17 | 18.68009 | -70.02449 | 1963 ft | 142 kts | 159° |
| 2026-04-24 21:17 | 18.67087 | -70.02072 | 1963 ft | 142 kts | 159° |
| 2026-04-24 21:17 | 18.66162 | -70.01694 | 1963 ft | 142 kts | 159° |
| 2026-04-24 21:17 | 18.65553 | -70.01446 | 1963 ft | 142 kts | 159° |
| 2026-04-24 21:18 | 18.64315 | -70.00943 | 1963 ft | 142 kts | 159° |
| 2026-04-24 21:18 | 18.63392 | -70.00571 | 1963 ft | 142 kts | 159° |
| 2026-04-24 21:18 | 18.62466 | -70.00198 | 1964 ft | 142 kts | 160° |
| 2026-04-24 21:18 | 18.61544 | -69.99810 | 1956 ft | 137 kts | 153° |
| 2026-04-24 21:19 | 18.60738 | -69.99414 | 1508 ft | 122 kts | 152° |
| 2026-04-24 21:19 | 18.59998 | -69.99047 | 1040 ft | 117 kts | 155° |
| 2026-04-24 21:19 | 18.59251 | -69.98747 | 631 ft | 112 kts | 160° |
| 2026-04-24 21:19 | 18.58588 | -69.98496 | 503 ft | 87 kts | 159° |
| 2026-04-24 21:20 | 18.57901 | -69.98311 | 174 ft | 10 kts | 139° |
| 2026-04-24 21:20 | 18.57881 | -69.98258 | 109 ft | 5 kts | 97° |
| 2026-04-24 21:20 | 18.57877 | -69.98248 | 83 ft | 0 kts | 98° |
| 2026-04-24 21:21 | 18.57876 | -69.98247 | 83 ft | 0 kts | 98° |